Time;durP1;ratioP1;P1;durP2;ratioP2;P2;SDS_P1;SDS_P2;PMS_P1;PMS_P2;Temp;Humidity;BMP_temperature;BMP_pressure;BME280_temperature;BME280_humidity;BME280_pressure;Samples;Min_cycle;Max_cycle;Signal;HPM_P1;HPM_P2
2022/08/04 00:01:07;;;;;;;2.50;2.00;;;24.80;60.20;;;;;;5055510;28;20217;-71
2022/08/04 00:03:46;;;;;;;2.97;2.25;;;24.70;60.10;;;;;;5055185;28;20182;-72
2022/08/04 00:06:18;;;;;;;2.72;1.95;;;24.70;60.10;;;;;;5037939;28;20175;-72
2022/08/04 00:08:54;;;;;;;2.80;2.05;;;24.80;60.20;;;;;;5054831;28;20236;-72
2022/08/04 00:11:22;;;;;;;2.30;1.90;;;24.70;60.10;;;;;;5022525;28;20186;-72
2022/08/04 00:14:00;;;;;;;2.40;2.15;;;24.70;60.10;;;;;;5055591;28;20186;-71
2022/08/04 00:16:36;;;;;;;3.70;2.15;;;24.70;60.10;;;;;;5054798;28;20175;-72
2022/08/04 00:19:04;;;;;;;3.72;1.95;;;24.80;60.10;;;;;;5037415;28;20293;-72
2022/08/04 00:21:30;;;;;;;3.15;2.00;;;24.70;60.10;;;;;;5037371;28;20702;-72
2022/08/04 00:23:56;;;;;;;1.92;1.83;;;24.70;60.10;;;;;;5036533;28;20190;-73
2022/08/04 00:26:21;;;;;;;2.67;2.08;;;24.80;60.20;;;;;;5020940;28;20535;-71
2022/08/04 00:28:47;;;;;;;2.97;2.03;;;24.70;60.10;;;;;;5055067;28;20186;-71
2022/08/04 00:31:14;;;;;;;2.20;2.00;;;24.70;60.20;;;;;;5054370;28;20179;-70
2022/08/04 00:33:43;;;;;;;2.35;2.13;;;24.70;60.10;;;;;;5055546;28;20573;-71
2022/08/04 00:36:10;;;;;;;2.28;2.08;;;24.80;60.20;;;;;;5037510;28;20245;-72
2022/08/04 00:38:36;;;;;;;2.40;2.20;;;24.70;60.10;;;;;;5054410;28;20210;-73
2022/08/04 00:41:04;;;;;;;2.47;1.90;;;24.70;60.20;;;;;;5020826;28;20221;-73
2022/08/04 00:43:43;;;;;;;3.05;2.00;;;24.70;60.10;;;;;;5054375;28;20172;-73
2022/08/04 00:46:22;;;;;;;2.50;1.88;;;24.70;60.20;;;;;;5037866;28;20664;-73
2022/08/04 00:49:06;;;;;;;2.13;1.90;;;24.70;60.20;;;;;;5038097;28;20171;-72
2022/08/04 00:51:54;;;;;;;3.63;2.03;;;24.70;60.20;;;;;;5054212;28;20175;-74
2022/08/04 00:54:33;;;;;;;2.08;1.88;;;24.70;60.20;;;;;;5037004;28;20257;-71
2022/08/04 00:57:20;;;;;;;2.20;2.00;;;24.70;60.20;;;;;;5054684;28;20175;-72
2022/08/04 01:00:03;;;;;;;2.28;1.80;;;24.70;60.20;;;;;;5053785;28;20210;-72
2022/08/04 01:02:50;;;;;;;3.58;2.05;;;24.70;60.30;;;;;;5054601;28;20174;-73
2022/08/04 01:05:47;;;;;;;2.03;1.80;;;24.70;60.30;;;;;;5053944;28;20179;-72
2022/08/04 01:08:40;;;;;;;2.83;2.15;;;24.70;60.30;;;;;;5054708;28;20179;-71
2022/08/04 01:11:14;;;;;;;2.22;1.85;;;24.70;60.30;;;;;;5036533;28;20182;-71
2022/08/04 01:13:48;;;;;;;2.15;1.95;;;24.70;60.30;;;;;;5053539;28;20530;-72
2022/08/04 01:16:15;;;;;;;3.08;1.83;;;24.70;60.30;;;;;;5036727;28;20540;-73
2022/08/04 01:19:00;;;;;;;2.22;2.05;;;24.70;60.30;;;;;;5053752;28;20222;-74
2022/08/04 01:21:28;;;;;;;2.40;2.20;;;24.70;60.30;;;;;;5054412;28;20528;-73
2022/08/04 01:23:53;;;;;;;2.03;1.90;;;24.70;60.20;;;;;;5054084;28;20186;-73
2022/08/04 01:26:42;;;;;;;2.08;1.98;;;24.70;60.30;;;;;;5053319;28;20170;-71
2022/08/04 01:29:08;;;;;;;2.63;1.80;;;24.60;60.20;;;;;;5054073;28;20182;-71
2022/08/04 01:31:46;;;;;;;2.10;2.00;;;24.60;60.20;;;;;;5053815;28;20223;-71
2022/08/04 01:34:12;;;;;;;3.47;1.88;;;24.60;60.30;;;;;;5036950;28;20565;-71
2022/08/04 01:36:46;;;;;;;2.33;1.95;;;24.60;60.20;;;;;;5053767;28;20732;-71
2022/08/04 01:41:57;;;;;;;2.40;1.98;;;24.60;60.30;;;;;;5037907;28;20178;-73
2022/08/04 01:44:23;;;;;;;2.20;2.00;;;24.70;60.30;;;;;;5035974;28;20179;-72
2022/08/04 01:46:49;;;;;;;1.85;1.70;;;24.60;60.20;;;;;;5052761;28;20167;-71
2022/08/04 01:49:15;;;;;;;1.95;1.85;;;24.60;60.30;;;;;;5053486;28;20202;-71
2022/08/04 01:51:40;;;;;;;2.00;1.73;;;24.60;60.30;;;;;;5019699;28;20176;-71
2022/08/04 01:54:06;;;;;;;2.10;1.95;;;24.60;60.20;;;;;;5018631;28;20167;-71
2022/08/04 01:56:32;;;;;;;3.03;2.10;;;24.60;60.30;;;;;;5035831;28;20179;-71
2022/08/04 01:58:57;;;;;;;2.45;1.80;;;24.70;60.20;;;;;;5053280;28;20226;-72
2022/08/04 02:01:23;;;;;;;3.30;2.38;;;24.60;60.20;;;;;;5034936;28;20186;-72
2022/08/04 02:03:48;;;;;;;2.20;2.00;;;24.60;60.20;;;;;;5053121;28;20186;-72
2022/08/04 02:06:50;;;;;;;4.30;2.10;;;24.60;60.20;;;;;;5053549;28;20266;-72
2022/08/04 02:09:16;;;;;;;2.25;1.92;;;24.60;60.20;;;;;;5035017;28;20181;-71
2022/08/04 02:11:45;;;;;;;2.03;1.92;;;24.60;60.20;;;;;;5052937;28;20209;-71
2022/08/04 02:14:39;;;;;;;2.03;1.90;;;24.60;60.20;;;;;;5019258;28;20306;-72
2022/08/04 02:17:21;;;;;;;2.38;2.00;;;24.60;60.10;;;;;;5037450;28;20175;-72
2022/08/04 02:20:07;;;;;;;3.50;2.78;;;24.60;60.20;;;;;;5052975;28;20211;-73
2022/08/04 02:22:34;;;;;;;2.40;2.15;;;24.60;60.10;;;;;;5036001;28;20183;-73
2022/08/04 02:25:06;;;;;;;2.63;2.03;;;24.60;60.20;;;;;;5034960;28;20536;-71
2022/08/04 02:27:54;;;;;;;2.20;2.00;;;24.60;60.10;;;;;;5052916;28;20213;-71
2022/08/04 02:30:20;;;;;;;2.22;2.03;;;24.60;60.20;;;;;;5051601;28;20649;-70
2022/08/04 02:32:46;;;;;;;2.28;1.90;;;24.60;60.10;;;;;;5052489;28;20237;-70
2022/08/04 02:35:16;;;;;;;2.40;2.20;;;24.60;60.10;;;;;;5035123;28;20171;-71
2022/08/04 02:37:46;;;;;;;2.22;2.00;;;24.60;60.10;;;;;;5052312;28;20187;-71
2022/08/04 02:40:12;;;;;;;2.25;2.08;;;24.60;60.10;;;;;;5052890;28;20218;-72
2022/08/04 02:42:37;;;;;;;2.85;2.08;;;24.60;60.00;;;;;;5034906;28;20262;-72
2022/08/04 02:45:03;;;;;;;2.13;2.00;;;24.60;60.00;;;;;;5051735;28;20657;-72
2022/08/04 02:47:29;;;;;;;2.22;1.98;;;24.60;60.10;;;;;;5052517;28;20171;-71
2022/08/04 02:49:56;;;;;;;2.17;2.05;;;24.60;60.00;;;;;;5034974;28;20167;-71
2022/08/04 02:52:21;;;;;;;2.10;1.83;;;24.50;60.00;;;;;;5052078;28;20182;-71
2022/08/04 02:54:49;;;;;;;2.20;2.00;;;24.50;60.00;;;;;;5018295;28;20170;-71
2022/08/04 02:57:15;;;;;;;3.03;2.10;;;24.50;59.90;;;;;;5034631;28;20178;-71
2022/08/04 02:59:46;;;;;;;3.30;2.20;;;24.60;60.00;;;;;;5034849;28;20215;-72
2022/08/04 03:02:12;;;;;;;2.75;2.30;;;24.50;59.90;;;;;;5052674;28;20175;-73
2022/08/04 03:04:46;;;;;;;2.33;2.05;;;24.50;59.90;;;;;;5034199;28;20217;-72
2022/08/04 03:07:30;;;;;;;2.10;1.90;;;24.50;59.90;;;;;;5019124;28;20178;-71
2022/08/04 03:10:29;;;;;;;2.30;2.13;;;24.50;59.90;;;;;;5052362;28;20179;-71
2022/08/04 03:13:13;;;;;;;2.70;2.10;;;24.50;59.90;;;;;;5036813;28;20190;-72
2022/08/04 03:15:47;;;;;;;2.38;2.05;;;24.50;59.90;;;;;;5052658;28;20178;-71
2022/08/04 03:18:43;;;;;;;2.83;2.20;;;24.50;59.90;;;;;;5034406;28;20202;-73
2022/08/04 03:21:30;;;;;;;2.53;1.98;;;24.50;59.90;;;;;;5037674;28;20187;-72
2022/08/04 03:24:02;;;;;;;2.40;2.20;;;24.50;59.90;;;;;;5055152;28;20183;-73
2022/08/04 03:26:51;;;;;;;2.28;2.08;;;24.50;59.80;;;;;;5037926;28;20645;-71
2022/08/04 03:29:33;;;;;;;2.28;2.05;;;24.50;59.90;;;;;;5023807;28;20680;-71
2022/08/04 03:32:36;;;;;;;2.22;2.10;;;24.50;59.80;;;;;;5023105;28;20235;-71
2022/08/04 03:35:19;;;;;;;2.65;2.05;;;24.50;59.80;;;;;;5056102;28;20630;-72
2022/08/04 03:37:57;;;;;;;2.72;2.00;;;24.50;59.90;;;;;;5055946;28;20171;-72
2022/08/04 03:40:35;;;;;;;3.22;1.98;;;24.50;59.80;;;;;;5038406;28;20657;-73
2022/08/04 03:43:25;;;;;;;3.03;2.25;;;24.50;59.80;;;;;;5039178;28;20171;-73
2022/08/04 03:45:51;;;;;;;1.80;1.70;;;24.50;59.90;;;;;;5055746;28;20233;-72
2022/08/04 03:48:37;;;;;;;2.03;1.92;;;24.50;59.90;;;;;;5055353;28;20172;-72
2022/08/04 03:54:02;;;;;;;2.72;1.95;;;24.50;59.80;;;;;;5055055;28;20253;-71
2022/08/04 03:57:07;;;;;;;2.40;2.20;;;24.50;59.80;;;;;;5037897;28;20652;-71
2022/08/04 04:00:01;;;;;;;2.13;2.03;;;24.50;60.00;;;;;;5024540;28;20272;-72
2022/08/04 04:03:03;;;;;;;3.33;2.03;;;24.50;59.80;;;;;;5054831;28;20237;-72
2022/08/04 04:05:48;;;;;;;2.33;2.00;;;24.50;59.80;;;;;;5055718;28;20217;-72
2022/08/04 04:08:19;;;;;;;3.15;1.85;;;24.50;59.80;;;;;;5055005;28;20190;-71
2022/08/04 04:11:04;;;;;;;2.17;1.98;;;24.50;59.80;;;;;;5055398;28;20175;-72
2022/08/04 04:14:01;;;;;;;3.38;2.10;;;24.50;59.80;;;;;;5055639;28;20178;-73
2022/08/04 04:16:45;;;;;;;2.03;1.92;;;24.50;59.80;;;;;;5036812;28;20254;-72
2022/08/04 04:19:24;;;;;;;2.95;1.85;;;24.50;59.80;;;;;;5055214;28;20213;-74
2022/08/04 04:22:02;;;;;;;3.15;1.98;;;24.50;59.80;;;;;;5036914;28;20212;-75
2022/08/04 04:25:03;;;;;;;2.75;1.98;;;24.50;59.80;;;;;;5055478;28;20174;-72
2022/08/04 04:27:43;;;;;;;1.60;1.50;;;24.50;59.70;;;;;;5055098;28;20181;-72
2022/08/04 04:30:22;;;;;;;5.68;2.08;;;24.50;59.70;;;;;;5054427;28;20265;-74
2022/08/04 04:33:25;;;;;;;1.83;1.73;;;24.50;59.70;;;;;;5054829;28;20245;-72
2022/08/04 04:36:25;;;;;;;2.08;1.67;;;24.50;59.70;;;;;;4973302;28;20177;-75
2022/08/04 04:39:24;;;;;;;2.17;1.98;;;24.50;59.60;;;;;;5041682;28;20230;-76
2022/08/04 04:42:23;;;;;;;2.35;1.85;;;24.50;59.60;;;;;;5023738;28;20252;-76
2022/08/04 04:44:55;;;;;;;2.78;1.88;;;24.50;59.70;;;;;;5054311;28;20183;-75
2022/08/04 04:47:40;;;;;;;3.05;2.17;;;24.50;59.60;;;;;;5054951;28;20175;-73
2022/08/04 04:50:44;;;;;;;1.80;1.70;;;24.50;59.60;;;;;;5036152;28;20625;-72
2022/08/04 04:53:24;;;;;;;2.88;1.75;;;24.50;59.60;;;;;;5055035;28;20167;-71
2022/08/04 04:56:03;;;;;;;3.38;2.10;;;24.50;59.60;;;;;;5021546;28;20175;-72
2022/08/04 04:58:29;;;;;;;2.05;1.90;;;24.50;59.60;;;;;;5020726;28;20214;-73
2022/08/04 05:01:04;;;;;;;2.30;2.10;;;24.50;59.60;;;;;;5020256;28;20232;-73
2022/08/04 05:03:43;;;;;;;2.28;1.92;;;24.50;59.60;;;;;;5054819;28;20248;-73
2022/08/04 05:06:13;;;;;;;3.08;1.92;;;24.50;59.60;;;;;;5021070;28;20179;-72
2022/08/04 05:08:58;;;;;;;2.25;2.05;;;24.50;59.60;;;;;;5054514;28;20581;-71
2022/08/04 05:11:29;;;;;;;2.50;2.15;;;24.60;59.70;;;;;;5053616;28;20187;-72
2022/08/04 05:13:57;;;;;;;2.30;1.90;;;24.50;59.60;;;;;;5054435;28;20578;-72
2022/08/04 05:16:46;;;;;;;2.50;1.98;;;24.50;59.60;;;;;;5036699;28;20175;-72
2022/08/04 05:19:37;;;;;;;4.22;2.08;;;24.50;59.60;;;;;;5037629;28;20207;-76
2022/08/04 05:22:23;;;;;;;4.00;2.20;;;24.50;59.60;;;;;;5054238;28;20183;-76
2022/08/04 05:24:49;;;;;;;2.17;1.65;;;24.50;59.60;;;;;;5038015;28;20198;-75
2022/08/04 05:27:19;;;;;;;1.95;1.85;;;24.50;59.60;;;;;;5020015;28;20237;-71
2022/08/04 05:29:53;;;;;;;1.83;1.73;;;24.50;59.60;;;;;;5020189;28;20585;-71
2022/08/04 05:32:21;;;;;;;1.98;1.88;;;24.50;59.60;;;;;;5019074;28;20240;-70
2022/08/04 05:35:02;;;;;;;2.35;1.60;;;24.50;59.60;;;;;;5053791;28;20525;-71
2022/08/04 05:37:27;;;;;;;2.70;2.00;;;24.60;59.50;;;;;;5021266;28;20513;-73
2022/08/04 05:39:55;;;;;;;2.40;2.10;;;24.60;59.50;;;;;;5035337;28;20236;-74
2022/08/04 05:42:21;;;;;;;2.20;2.00;;;24.60;59.50;;;;;;5019519;28;20530;-72
2022/08/04 05:44:47;;;;;;;2.55;1.70;;;24.70;59.50;;;;;;5035741;28;20186;-73
2022/08/04 05:47:12;;;;;;;2.15;1.92;;;24.60;59.50;;;;;;5034862;28;20583;-71
2022/08/04 05:49:38;;;;;;;2.30;1.88;;;24.60;59.50;;;;;;5035992;28;20175;-71
2022/08/04 05:52:03;;;;;;;1.70;1.60;;;24.60;59.50;;;;;;5019266;28;20577;-71
2022/08/04 05:54:30;;;;;;;2.90;1.88;;;24.60;59.60;;;;;;5018660;28;20526;-72
2022/08/04 05:56:55;;;;;;;2.92;2.00;;;24.60;59.50;;;;;;5053514;28;20178;-72
2022/08/04 05:59:24;;;;;;;1.98;1.67;;;24.60;59.50;;;;;;5019393;28;20211;-72
2022/08/04 06:01:50;;;;;;;1.83;1.45;;;24.60;59.50;;;;;;5035141;28;20645;-72
2022/08/04 06:04:15;;;;;;;2.17;1.70;;;24.60;59.60;;;;;;5053447;28;20190;-71
2022/08/04 06:06:41;;;;;;;1.80;1.70;;;24.60;59.60;;;;;;5035552;28;20652;-71
2022/08/04 06:09:06;;;;;;;3.08;1.60;;;24.60;59.50;;;;;;5018343;28;20186;-71
2022/08/04 06:11:32;;;;;;;1.83;1.70;;;24.60;59.50;;;;;;5035418;28;20195;-71
2022/08/04 06:14:00;;;;;;;1.83;1.73;;;24.70;59.60;;;;;;5035450;28;20262;-72
2022/08/04 06:16:28;;;;;;;2.40;1.88;;;24.60;59.50;;;;;;5018784;28;20175;-72
2022/08/04 06:18:53;;;;;;;2.47;1.80;;;24.70;59.50;;;;;;5018970;28;20619;-72
2022/08/04 06:21:20;;;;;;;1.75;1.65;;;24.70;59.50;;;;;;5018321;28;20261;-73
2022/08/04 06:23:46;;;;;;;2.10;1.63;;;24.70;59.50;;;;;;5035066;28;20171;-73
2022/08/04 06:26:17;;;;;;;2.10;1.80;;;24.70;59.50;;;;;;5035207;28;20644;-71
2022/08/04 06:28:43;;;;;;;2.10;2.00;;;24.70;59.40;;;;;;5019695;28;20739;-70
2022/08/04 06:31:09;;;;;;;1.92;1.63;;;24.70;59.40;;;;;;5052985;28;20171;-70
2022/08/04 06:33:35;;;;;;;1.75;1.65;;;24.80;59.50;;;;;;5018633;28;20629;-70
2022/08/04 06:36:02;;;;;;;2.25;1.73;;;24.70;59.40;;;;;;5018199;28;20175;-71
2022/08/04 06:38:28;;;;;;;1.70;1.60;;;24.70;59.40;;;;;;5034822;28;20602;-72
2022/08/04 06:40:56;;;;;;;2.75;1.80;;;24.80;59.50;;;;;;5034834;28;20270;-73
2022/08/04 06:43:22;;;;;;;1.80;1.70;;;24.80;59.40;;;;;;5052064;28;20233;-74
2022/08/04 06:45:47;;;;;;;1.95;1.65;;;24.80;59.40;;;;;;5018622;28;20206;-72
2022/08/04 06:48:15;;;;;;;2.67;1.88;;;24.80;59.40;;;;;;5034946;28;20175;-72
2022/08/04 06:50:40;;;;;;;2.83;1.70;;;24.80;59.40;;;;;;5018076;28;20177;-71
2022/08/04 06:53:06;;;;;;;2.50;1.70;;;24.80;59.30;;;;;;5018179;28;20178;-71
2022/08/04 06:55:32;;;;;;;1.67;1.58;;;24.80;59.30;;;;;;5034787;28;20210;-74
2022/08/04 06:57:57;;;;;;;2.05;1.75;;;24.80;59.30;;;;;;5017573;28;20171;-72
2022/08/04 07:00:23;;;;;;;1.90;1.65;;;24.90;59.30;;;;;;5052527;28;20584;-72
2022/08/04 07:02:50;;;;;;;1.73;1.58;;;24.90;59.30;;;;;;5018176;28;20667;-71
2022/08/04 07:05:16;;;;;;;2.25;1.73;;;24.80;59.30;;;;;;5017746;28;20182;-71
2022/08/04 07:07:41;;;;;;;1.95;1.75;;;24.90;59.40;;;;;;5052679;28;20175;-69
2022/08/04 07:10:07;;;;;;;1.65;1.55;;;24.90;59.40;;;;;;5017808;28;20167;-72
2022/08/04 07:12:33;;;;;;;5.95;2.20;;;24.90;59.40;;;;;;5051678;28;20205;-64
2022/08/04 07:14:59;;;;;;;5.07;2.30;;;24.90;60.00;;;;;;5018201;28;20175;-66
2022/08/04 07:17:24;;;;;;;7.25;2.70;;;24.90;60.70;;;;;;5017194;28;20179;-65
2022/08/04 07:19:51;;;;;;;6.10;2.83;;;25.00;60.90;;;;;;5017827;28;20206;-67
2022/08/04 07:22:17;;;;;;;6.50;2.60;;;25.00;61.10;;;;;;5034786;28;20187;-67
2022/08/04 07:24:42;;;;;;;8.68;2.80;;;25.00;61.40;;;;;;5033840;28;20997;-67
2022/08/04 07:27:08;;;;;;;7.97;2.85;;;25.00;61.40;;;;;;5052028;28;20168;-67
2022/08/04 07:29:34;;;;;;;4.85;2.83;;;25.10;61.20;;;;;;5051846;28;20645;-67
2022/08/04 07:31:59;;;;;;;6.47;2.63;;;25.10;60.50;;;;;;5051246;28;20234;-66
2022/08/04 07:34:25;;;;;;;8.25;3.33;;;25.10;60.40;;;;;;5034542;28;20203;-66
2022/08/04 07:36:52;;;;;;;5.45;3.10;;;25.10;60.40;;;;;;5051725;28;20179;-67
2022/08/04 07:39:17;;;;;;;6.38;3.10;;;25.10;60.40;;;;;;5051420;28;20211;-67
2022/08/04 07:41:43;;;;;;;8.05;2.90;;;25.20;60.50;;;;;;5052328;28;20175;-68
2022/08/04 07:44:09;;;;;;;7.22;3.58;;;25.20;60.40;;;;;;5052154;28;20179;-67
2022/08/04 07:46:35;;;;;;;6.45;3.25;;;25.20;60.50;;;;;;5051491;28;20245;-69
2022/08/04 07:49:01;;;;;;;8.45;3.72;;;25.20;60.50;;;;;;5051925;28;20622;-66
2022/08/04 07:51:27;;;;;;;5.38;3.00;;;25.20;60.40;;;;;;5034242;28;20273;-66
2022/08/04 07:53:53;;;;;;;6.55;3.22;;;25.20;60.40;;;;;;5051221;28;20638;-68
2022/08/04 07:56:18;;;;;;;8.18;2.90;;;25.30;60.10;;;;;;5034650;28;20178;-67
2022/08/04 07:58:44;;;;;;;5.03;2.83;;;25.30;60.00;;;;;;5033951;28;20199;-67
2022/08/04 08:01:09;;;;;;;4.05;2.28;;;25.30;60.00;;;;;;5033784;28;20164;-66
2022/08/04 08:03:35;;;;;;;3.83;2.70;;;25.30;59.90;;;;;;5034563;28;20183;-66
2022/08/04 08:06:02;;;;;;;6.75;3.00;;;25.30;59.90;;;;;;5017738;28;20244;-65
2022/08/04 08:08:27;;;;;;;6.50;2.92;;;25.30;59.90;;;;;;5033784;28;20241;-63
2022/08/04 08:10:53;;;;;;;9.32;3.05;;;25.40;60.20;;;;;;5037517;28;20270;-66
2022/08/04 08:13:18;;;;;;;5.05;2.45;;;25.40;60.50;;;;;;5037597;28;20171;-66
2022/08/04 08:15:44;;;;;;;4.47;2.47;;;25.40;59.80;;;;;;5037023;28;20213;-63
2022/08/04 08:18:10;;;;;;;7.05;3.00;;;25.40;59.80;;;;;;5037650;28;20167;-64
2022/08/04 08:20:35;;;;;;;5.85;2.35;;;25.40;59.80;;;;;;5055299;28;20184;-64
2022/08/04 08:23:02;;;;;;;4.90;2.63;;;25.40;59.90;;;;;;5036610;28;20174;-65
2022/08/04 08:25:31;;;;;;;5.80;2.78;;;25.40;59.90;;;;;;5055122;28;20588;-66
2022/08/04 08:27:57;;;;;;;3.60;2.47;;;25.40;59.90;;;;;;5054451;28;20538;-66
2022/08/04 08:30:24;;;;;;;6.15;2.63;;;25.40;59.80;;;;;;5037342;28;20179;-66
2022/08/04 08:32:50;;;;;;;6.05;2.70;;;25.40;59.80;;;;;;5054758;28;20744;-66
2022/08/04 08:35:15;;;;;;;4.88;2.83;;;25.40;59.70;;;;;;5036454;28;20265;-66
2022/08/04 08:37:51;;;;;;;6.15;2.47;;;25.50;59.80;;;;;;5020915;28;20178;-68
2022/08/04 08:40:34;;;;;;;5.45;2.42;;;25.50;59.70;;;;;;5037666;28;20215;-71
2022/08/04 08:43:18;;;;;;;4.78;2.78;;;25.60;59.70;;;;;;5036435;28;20202;-69
2022/08/04 08:46:14;;;;;;;5.35;2.72;;;25.60;59.90;;;;;;5054632;28;20190;-66
2022/08/04 08:48:45;;;;;;;4.97;2.40;;;25.70;59.70;;;;;;5054997;28;20175;-67
2022/08/04 08:51:34;;;;;;;5.00;2.17;;;25.70;59.90;;;;;;5054605;28;20198;-67
2022/08/04 08:54:30;;;;;;;4.60;2.42;;;25.70;59.80;;;;;;5054666;28;20178;-66
2022/08/04 08:57:12;;;;;;;4.75;2.70;;;25.70;59.70;;;;;;5053976;28;20204;-67
2022/08/04 08:59:56;;;;;;;5.25;2.80;;;25.70;59.70;;;;;;5054628;28;20210;-67
2022/08/04 09:02:40;;;;;;;4.63;2.25;;;25.70;59.70;;;;;;5038885;28;20610;-67
2022/08/04 09:05:43;;;;;;;3.90;2.50;;;25.70;59.70;;;;;;5053601;28;20630;-66
2022/08/04 09:08:26;;;;;;;4.13;2.42;;;25.70;59.60;;;;;;5054604;28;20198;-66
2022/08/04 09:10:58;;;;;;;6.80;2.65;;;25.70;59.60;;;;;;5020399;28;20187;-66
2022/08/04 09:13:39;;;;;;;4.55;2.42;;;25.70;59.50;;;;;;5036512;28;20182;-66
2022/08/04 09:16:10;;;;;;;5.18;2.80;;;25.80;59.50;;;;;;5020533;28;20182;-67
2022/08/04 09:18:55;;;;;;;4.25;2.40;;;25.70;59.50;;;;;;5036212;28;20211;-67
2022/08/04 09:21:56;;;;;;;8.75;3.03;;;25.70;59.60;;;;;;5035481;28;20258;-67
2022/08/04 09:24:36;;;;;;;3.65;2.25;;;25.70;59.60;;;;;;5010584;28;20183;-67
2022/08/04 09:27:04;;;;;;;3.38;2.63;;;25.70;59.50;;;;;;5037630;28;20171;-67
2022/08/04 09:29:34;;;;;;;6.72;2.53;;;25.70;59.60;;;;;;5036051;28;20588;-66
2022/08/04 09:32:31;;;;;;;3.15;2.22;;;25.70;59.50;;;;;;5035053;28;20731;-66
2022/08/04 09:35:15;;;;;;;3.55;1.90;;;25.80;59.50;;;;;;5053931;28;20167;-64
2022/08/04 09:37:41;;;;;;;4.22;2.60;;;25.70;59.40;;;;;;5054122;28;20175;-67
2022/08/04 09:40:22;;;;;;;6.43;2.53;;;25.70;59.40;;;;;;5052916;28;20227;-67
2022/08/04 09:43:22;;;;;;;8.57;3.35;;;25.70;59.40;;;;;;5020728;28;20185;-67
2022/08/04 09:45:57;;;;;;;4.55;2.15;;;25.80;59.40;;;;;;5035072;28;20324;-67
2022/08/04 09:48:57;;;;;;;4.63;1.90;;;25.80;59.40;;;;;;5020534;28;20264;-67
2022/08/04 09:51:27;;;;;;;4.80;2.35;;;25.80;59.40;;;;;;5036056;28;20250;-67
2022/08/04 09:54:04;;;;;;;5.70;2.20;;;25.80;59.40;;;;;;5035428;28;20196;-67
2022/08/04 09:56:34;;;;;;;4.60;2.45;;;25.80;59.40;;;;;;5019669;28;20179;-67
2022/08/04 09:59:17;;;;;;;2.55;2.28;;;25.80;59.30;;;;;;5035579;28;20211;-67
2022/08/04 10:01:42;;;;;;;3.20;2.25;;;25.80;59.30;;;;;;5020289;28;20171;-66
2022/08/04 10:04:10;;;;;;;3.78;2.03;;;25.90;59.40;;;;;;5053550;28;20240;-67
2022/08/04 10:07:04;;;;;;;3.88;2.15;;;25.90;59.20;;;;;;5052710;28;20179;-66
2022/08/04 10:10:01;;;;;;;2.28;2.00;;;25.90;59.20;;;;;;5038469;28;20175;-66
2022/08/04 10:12:51;;;;;;;2.95;2.40;;;25.90;59.20;;;;;;5053294;28;20186;-66
2022/08/04 10:15:35;;;;;;;3.50;2.05;;;25.90;59.20;;;;;;5052547;28;20168;-69
2022/08/04 10:18:10;;;;;;;3.88;2.10;;;25.90;59.20;;;;;;5035282;28;20183;-67
2022/08/04 10:20:50;;;;;;;4.30;2.47;;;25.90;59.20;;;;;;5034813;28;20214;-65
2022/08/04 10:23:57;;;;;;;3.13;2.05;;;25.90;59.20;;;;;;5052795;28;20640;-65
2022/08/04 10:26:47;;;;;;;3.85;2.38;;;25.90;59.20;;;;;;5022401;28;20178;-64
2022/08/04 10:29:25;;;;;;;3.50;1.80;;;25.90;59.30;;;;;;5052431;28;20183;-64
2022/08/04 10:31:56;;;;;;;4.50;2.40;;;25.90;59.20;;;;;;5018286;28;20280;-64
2022/08/04 10:34:25;;;;;;;2.47;2.03;;;25.90;59.20;;;;;;5034444;28;20218;-64
2022/08/04 10:37:06;;;;;;;2.53;1.92;;;25.90;59.20;;;;;;5035023;28;20183;-63
2022/08/04 10:40:35;;;;;;;3.53;2.33;;;25.90;59.20;;;;;;5035002;28;20221;-65
2022/08/04 10:42:31;;;;;;;5.38;2.30;;;25.80;59.20;;;;;;5038430;28;20201;-65
2022/08/04 10:45:17;;;;;;;2.53;2.30;;;25.80;59.30;;;;;;5034845;28;20697;-65
2022/08/04 10:48:53;;;;;;;2.47;2.20;;;25.80;59.40;;;;;;5052833;28;20177;-65
2022/08/04 10:51:43;;;;;;;3.55;2.10;;;25.70;59.40;;;;;;4940354;28;20260;-65
2022/08/04 10:54:18;;;;;;;2.63;2.10;;;25.70;59.50;;;;;;4971946;28;20547;-66
2022/08/04 10:57:06;;;;;;;4.82;2.40;;;25.70;59.50;;;;;;5028550;28;20194;-67
2022/08/04 10:59:43;;;;;;;4.20;2.13;;;25.60;59.60;;;;;;5037115;28;20223;-65
2022/08/04 11:02:50;;;;;;;2.97;1.98;;;25.60;59.60;;;;;;5052734;28;20171;-64
2022/08/04 11:05:35;;;;;;;5.25;2.20;;;25.60;59.70;;;;;;5013268;28;20194;-63
2022/08/04 11:08:03;;;;;;;4.00;2.30;;;25.50;59.60;;;;;;5052608;28;20202;-65
2022/08/04 11:10:32;;;;;;;2.72;2.25;;;25.50;59.70;;;;;;5034283;28;20249;-67
2022/08/04 11:13:00;;;;;;;2.58;1.90;;;25.50;60.50;;;;;;5035020;28;20258;-67
2022/08/04 11:15:33;;;;;;;3.75;2.15;;;25.50;59.80;;;;;;5034907;28;20186;-68
2022/08/04 11:18:04;;;;;;;3.60;1.80;;;25.50;59.80;;;;;;5051524;28;20175;-67
2022/08/04 11:20:47;;;;;;;3.60;2.28;;;25.40;59.80;;;;;;5034807;28;20253;-67
2022/08/04 11:23:14;;;;;;;3.85;2.03;;;25.40;59.80;;;;;;5018895;28;20645;-68
2022/08/04 11:25:57;;;;;;;3.67;2.13;;;25.40;59.80;;;;;;5034093;28;20185;-68
2022/08/04 11:29:02;;;;;;;2.95;2.05;;;25.40;59.90;;;;;;5052248;28;20185;-67
2022/08/04 11:31:30;;;;;;;3.30;2.10;;;25.40;59.90;;;;;;5047630;28;20398;-67
2022/08/04 11:34:12;;;;;;;2.63;1.70;;;25.40;59.90;;;;;;5034448;28;20183;-67
2022/08/04 11:37:01;;;;;;;2.47;1.75;;;25.40;59.90;;;;;;5035925;28;20171;-67
2022/08/04 11:39:28;;;;;;;4.20;2.05;;;25.40;59.90;;;;;;5051596;28;20210;-66
2022/08/04 11:42:28;;;;;;;2.78;2.10;;;25.40;59.90;;;;;;5034568;28;20179;-66
2022/08/04 11:45:04;;;;;;;2.85;2.40;;;25.40;59.90;;;;;;5054050;28;20262;-68
2022/08/04 11:47:31;;;;;;;4.45;2.67;;;25.40;59.90;;;;;;5056119;28;20179;-68
2022/08/04 11:50:09;;;;;;;3.85;2.00;;;25.40;59.90;;;;;;5038173;28;20183;-68
2022/08/04 11:52:36;;;;;;;3.28;2.10;;;25.40;59.90;;;;;;5055240;28;20265;-65
2022/08/04 11:55:04;;;;;;;3.30;2.15;;;25.40;59.90;;;;;;5038307;28;20179;-66
2022/08/04 11:57:30;;;;;;;2.63;1.90;;;25.40;59.90;;;;;;5038309;28;20570;-66
2022/08/04 11:59:55;;;;;;;6.97;2.13;;;25.40;59.90;;;;;;5037069;28;20728;-66
2022/08/04 12:02:56;;;;;;;2.05;1.85;;;25.40;59.80;;;;;;5055869;28;20266;-66
2022/08/04 12:05:26;;;;;;;5.22;1.85;;;25.40;59.90;;;;;;5055056;28;20182;-65
2022/08/04 12:08:10;;;;;;;4.10;2.22;;;25.40;59.90;;;;;;5020821;28;20224;-65
2022/08/04 12:11:05;;;;;;;2.05;1.83;;;25.40;59.90;;;;;;5055825;28;20171;-68
2022/08/04 12:13:44;;;;;;;4.13;2.38;;;25.40;59.90;;;;;;4983379;28;20190;-68
2022/08/04 12:16:17;;;;;;;2.33;1.90;;;25.40;60.00;;;;;;5038657;28;20170;-68
2022/08/04 12:19:01;;;;;;;2.65;1.88;;;25.40;59.90;;;;;;5037987;28;20233;-68
2022/08/04 12:21:41;;;;;;;4.10;2.15;;;25.40;60.00;;;;;;5037287;28;20202;-69
2022/08/04 12:24:16;;;;;;;3.85;2.03;;;25.40;60.10;;;;;;5037606;28;20181;-69
2022/08/04 12:26:52;;;;;;;2.08;1.88;;;25.40;60.10;;;;;;5037535;28;20182;-68
2022/08/04 12:29:18;;;;;;;2.78;1.90;;;25.40;60.30;;;;;;5021877;28;20182;-67
2022/08/04 12:31:55;;;;;;;3.05;2.08;;;25.40;60.30;;;;;;5020705;28;20313;-69
2022/08/04 12:34:39;;;;;;;2.40;1.92;;;25.40;60.40;;;;;;5021266;28;20187;-67
2022/08/04 12:37:11;;;;;;;2.88;2.03;;;25.40;60.30;;;;;;5055053;28;20297;-67
2022/08/04 12:39:37;;;;;;;2.55;1.92;;;25.40;60.20;;;;;;5037363;28;20214;-68
2022/08/04 12:42:10;;;;;;;4.40;2.33;;;25.50;60.30;;;;;;5036626;28;20262;-66
2022/08/04 12:44:40;;;;;;;2.92;1.70;;;25.50;60.20;;;;;;5037143;28;20179;-66
2022/08/04 12:47:12;;;;;;;1.92;1.75;;;25.60;60.20;;;;;;5020575;28;20172;-66
2022/08/04 12:49:40;;;;;;;3.28;2.00;;;25.60;60.20;;;;;;5054064;28;20214;-67
2022/08/04 12:52:07;;;;;;;3.47;2.00;;;25.60;60.30;;;;;;5037429;28;20171;-66
2022/08/04 12:54:32;;;;;;;2.80;2.03;;;25.60;60.30;;;;;;5054529;28;20267;-66
2022/08/04 12:56:58;;;;;;;4.03;2.10;;;25.60;60.20;;;;;;5036163;28;20330;-66
2022/08/04 12:59:24;;;;;;;1.83;1.60;;;25.60;60.20;;;;;;5036694;28;20211;-65
2022/08/04 13:01:50;;;;;;;2.25;1.80;;;25.60;60.20;;;;;;5054441;28;20233;-66
2022/08/04 13:04:16;;;;;;;2.30;1.80;;;25.60;60.20;;;;;;5036299;28;20653;-65
2022/08/04 13:06:42;;;;;;;2.45;2.00;;;25.60;60.40;;;;;;5054800;28;20229;-66
2022/08/04 13:09:15;;;;;;;3.05;1.77;;;25.60;60.50;;;;;;5019577;28;20171;-66
2022/08/04 13:11:43;;;;;;;5.03;2.10;;;25.70;61.10;;;;;;5020886;28;20171;-67
2022/08/04 13:14:10;;;;;;;4.32;1.98;;;25.70;61.30;;;;;;5036618;28;20175;-66
2022/08/04 13:16:36;;;;;;;3.80;1.98;;;25.70;61.10;;;;;;5035809;28;20513;-67
2022/08/04 13:19:02;;;;;;;4.30;2.22;;;25.70;61.20;;;;;;5054277;28;20217;-68
2022/08/04 13:21:28;;;;;;;4.28;1.90;;;25.70;62.10;;;;;;5020062;28;20244;-68
2022/08/04 13:24:01;;;;;;;3.00;1.65;;;25.70;61.30;;;;;;5035759;28;20221;-67
2022/08/04 13:26:27;;;;;;;3.13;1.92;;;25.70;61.20;;;;;;5036477;28;20260;-66
2022/08/04 13:28:53;;;;;;;3.10;1.70;;;25.70;61.00;;;;;;5034746;28;20217;-66
2022/08/04 13:31:22;;;;;;;4.75;1.90;;;25.90;61.00;;;;;;5035034;28;20174;-65
2022/08/04 13:33:48;;;;;;;2.83;1.75;;;26.00;60.80;;;;;;5053973;28;20179;-65